Time;durP1;ratioP1;P1;durP2;ratioP2;P2;SDS_P1;SDS_P2;PMS_P1;PMS_P2;Temp;Humidity;BMP_temperature;BMP_pressure;BME280_temperature;BME280_humidity;BME280_pressure;Samples;Min_cycle;Max_cycle;Signal;HPM_P1;HPM_P2
2022/08/13 04:00:47;;;;;;;3.10;2.60;;;17.60;99.90;;;;;;5951145;23;20489;-76
2022/08/13 04:03:19;;;;;;;5.33;2.70;;;17.50;99.90;;;;;;5049351;28;20462;-75
2022/08/13 04:05:46;;;;;;;2.87;2.57;;;17.40;99.90;;;;;;5047867;28;20460;-75
2022/08/13 04:08:13;;;;;;;3.73;2.97;;;17.30;99.90;;;;;;5048649;28;20453;-75
2022/08/13 04:10:40;;;;;;;3.20;2.90;;;17.20;99.90;;;;;;5044497;28;20504;-75
2022/08/13 04:13:12;;;;;;;3.60;2.40;;;17.20;99.90;;;;;;5028335;28;20461;-76
2022/08/13 04:15:42;;;;;;;5.63;2.93;;;17.20;99.90;;;;;;5028175;28;20512;-75
2022/08/13 04:18:11;;;;;;;2.63;2.43;;;17.20;99.90;;;;;;5028653;28;20458;-75
2022/08/13 04:20:40;;;;;;;3.27;2.73;;;17.10;99.90;;;;;;5028150;28;20477;-75
2022/08/13 04:23:09;;;;;;;3.00;2.70;;;17.10;99.90;;;;;;5028693;28;20465;-75
2022/08/13 04:25:36;;;;;;;2.87;2.63;;;17.10;99.90;;;;;;5027879;28;20461;-75
2022/08/13 04:28:04;;;;;;;3.10;2.87;;;17.10;99.90;;;;;;5028020;28;20496;-76
2022/08/13 04:30:34;;;;;;;4.93;3.30;;;17.20;99.90;;;;;;5028467;28;20882;-75
2022/08/13 04:33:03;;;;;;;3.70;2.83;;;17.20;99.90;;;;;;5028406;28;20458;-75
2022/08/13 04:35:31;;;;;;;3.23;2.93;;;17.20;99.90;;;;;;5027534;28;20465;-75
2022/08/13 04:37:58;;;;;;;4.00;2.80;;;17.20;99.90;;;;;;5028221;28;20462;-75
2022/08/13 04:40:25;;;;;;;4.53;3.20;;;17.20;99.90;;;;;;5027811;28;20975;-76
2022/08/13 04:42:53;;;;;;;2.80;2.57;;;17.20;99.90;;;;;;5028243;28;20453;-75
2022/08/13 04:45:22;;;;;;;5.03;3.00;;;17.20;99.90;;;;;;5027561;28;20827;-78
2022/08/13 04:47:48;;;;;;;3.13;2.70;;;17.20;99.90;;;;;;5027938;28;20462;-76
2022/08/13 04:50:16;;;;;;;5.80;3.03;;;17.20;99.90;;;;;;5027976;28;20516;-76
2022/08/13 04:52:44;;;;;;;5.80;2.60;;;17.20;99.90;;;;;;5027455;28;20466;-76
2022/08/13 04:55:12;;;;;;;3.50;3.20;;;17.20;99.90;;;;;;5028161;28;20632;-76
2022/08/13 04:57:41;;;;;;;3.80;3.33;;;17.20;99.90;;;;;;5028789;28;20462;-76
2022/08/13 05:00:09;;;;;;;3.10;2.80;;;17.20;99.90;;;;;;5028942;28;20473;-75
2022/08/13 05:02:38;;;;;;;6.47;3.33;;;17.20;99.90;;;;;;5031866;28;20551;-77
2022/08/13 05:05:06;;;;;;;3.70;3.30;;;17.20;99.90;;;;;;5035668;28;20515;-79
2022/08/13 05:07:33;;;;;;;3.43;3.13;;;17.20;99.90;;;;;;5035691;28;20457;-78
2022/08/13 05:10:01;;;;;;;4.37;2.80;;;17.20;99.90;;;;;;5035734;28;20504;-79
2022/08/13 05:12:33;;;;;;;3.30;2.40;;;17.10;99.90;;;;;;5036027;28;20550;-79
2022/08/13 05:15:00;;;;;;;3.43;2.73;;;17.10;99.90;;;;;;5035459;28;20954;-79
2022/08/13 05:17:28;;;;;;;3.23;2.60;;;17.00;99.90;;;;;;5035748;28;20458;-79
2022/08/13 05:19:55;;;;;;;5.50;3.20;;;17.10;99.90;;;;;;5035244;28;20470;-77
2022/08/13 05:22:23;;;;;;;3.40;3.10;;;17.20;99.90;;;;;;5029988;28;20488;-66
2022/08/13 05:24:50;;;;;;;5.30;3.30;;;17.20;99.90;;;;;;5026856;28;20572;-66
2022/08/13 05:27:19;;;;;;;3.70;3.30;;;17.20;99.90;;;;;;5027380;28;20458;-67
2022/08/13 05:29:46;;;;;;;3.60;3.30;;;17.20;99.90;;;;;;5027473;28;20480;-64
2022/08/13 05:32:13;;;;;;;4.40;3.27;;;17.20;99.90;;;;;;5027257;28;21004;-66
2022/08/13 05:34:40;;;;;;;3.40;3.10;;;17.20;99.90;;;;;;5026484;28;20470;-67
2022/08/13 05:37:07;;;;;;;5.70;3.07;;;17.20;99.90;;;;;;5027449;28;20458;-66
2022/08/13 05:39:34;;;;;;;3.30;3.00;;;17.20;99.90;;;;;;5027178;28;20930;-66
2022/08/13 05:42:01;;;;;;;4.23;3.67;;;17.30;99.90;;;;;;5027262;28;20581;-67
2022/08/13 05:44:33;;;;;;;4.10;2.83;;;17.20;99.90;;;;;;5028834;28;20454;-79
2022/08/13 05:47:00;;;;;;;3.70;3.03;;;17.20;99.90;;;;;;5036872;28;20780;-79
2022/08/13 05:49:27;;;;;;;3.40;2.90;;;17.20;99.90;;;;;;5037267;28;20545;-78
2022/08/13 05:51:54;;;;;;;3.07;2.57;;;17.20;99.90;;;;;;5033754;28;20509;-78
2022/08/13 05:54:22;;;;;;;3.17;2.87;;;17.30;99.90;;;;;;5033508;28;20553;-79
2022/08/13 05:56:49;;;;;;;4.20;3.00;;;17.30;99.90;;;;;;5033334;28;20524;-79
2022/08/13 06:04:42;;;;;;;4.23;3.40;;;17.40;99.90;;;;;;5031509;28;20519;-78
2022/08/13 06:07:11;;;;;;;4.40;3.23;;;17.50;99.90;;;;;;5032354;28;20460;-79
2022/08/13 06:09:38;;;;;;;4.50;3.27;;;17.50;99.90;;;;;;5032699;28;20949;-79
2022/08/13 06:12:06;;;;;;;3.83;3.37;;;17.50;99.90;;;;;;5032717;28;20509;-79
2022/08/13 06:14:34;;;;;;;3.97;3.57;;;17.60;99.90;;;;;;5031734;28;20466;-79
2022/08/13 06:17:04;;;;;;;6.63;3.60;;;17.60;99.90;;;;;;5032575;28;20965;-79
2022/08/13 06:19:32;;;;;;;4.47;3.00;;;17.60;99.90;;;;;;5030903;28;20462;-79
2022/08/13 06:22:02;;;;;;;4.77;3.20;;;17.70;99.90;;;;;;5031064;28;20836;-78
2022/08/13 06:24:31;;;;;;;4.93;3.33;;;17.70;99.90;;;;;;5030451;28;20462;-79
2022/08/13 06:27:00;;;;;;;3.40;3.10;;;17.70;99.90;;;;;;5029947;28;20512;-78
2022/08/13 06:29:29;;;;;;;3.40;3.10;;;17.80;99.90;;;;;;5027106;28;20500;-77
2022/08/13 06:31:57;;;;;;;4.50;3.23;;;17.80;99.90;;;;;;5026966;28;20548;-77
2022/08/13 06:34:25;;;;;;;3.00;2.70;;;17.80;99.90;;;;;;5027867;28;20461;-78
2022/08/13 06:36:52;;;;;;;3.37;2.87;;;17.90;99.90;;;;;;5030358;28;20472;-79
2022/08/13 06:39:20;;;;;;;3.47;3.10;;;17.90;99.90;;;;;;5029687;28;20460;-78
2022/08/13 06:41:47;;;;;;;3.13;2.87;;;18.00;99.90;;;;;;5030262;28;20466;-78
2022/08/13 06:44:15;;;;;;;2.97;2.60;;;18.10;99.90;;;;;;5029124;28;20469;-78
2022/08/13 06:46:43;;;;;;;3.00;2.80;;;18.10;99.90;;;;;;5029139;28;20464;-78
2022/08/13 06:49:11;;;;;;;5.10;2.80;;;18.10;99.90;;;;;;5029227;28;20462;-78
2022/08/13 06:51:39;;;;;;;3.63;3.00;;;18.20;99.90;;;;;;5042407;23;20499;-73
2022/08/13 06:54:08;;;;;;;6.10;3.10;;;18.20;99.90;;;;;;5011779;28;20477;-73
2022/08/13 06:56:36;;;;;;;3.37;3.07;;;18.20;99.90;;;;;;5011767;28;20474;-73
2022/08/13 06:59:04;;;;;;;7.63;3.33;;;18.30;99.90;;;;;;5011535;28;20466;-74
2022/08/13 07:01:31;;;;;;;3.30;3.00;;;18.30;99.90;;;;;;5011237;28;20498;-76
2022/08/13 07:03:58;;;;;;;5.80;3.20;;;18.40;99.90;;;;;;5009998;28;20454;-74
2022/08/13 07:06:26;;;;;;;4.60;3.13;;;18.50;99.90;;;;;;5011397;28;20512;-74
2022/08/13 07:08:56;;;;;;;3.30;2.70;;;18.50;99.90;;;;;;5011551;28;20474;-74
2022/08/13 07:11:23;;;;;;;4.43;3.00;;;18.60;99.90;;;;;;5011299;28;20529;-74
2022/08/13 07:13:52;;;;;;;6.73;3.20;;;18.70;99.90;;;;;;5011176;28;20546;-75
2022/08/13 07:16:22;;;;;;;8.53;3.00;;;18.70;99.90;;;;;;5010497;28;20509;-74
2022/08/13 07:18:50;;;;;;;5.40;2.93;;;18.80;99.90;;;;;;5011771;28;20973;-75
2022/08/13 07:21:19;;;;;;;5.80;2.97;;;18.90;99.90;;;;;;5012307;28;20475;-74
2022/08/13 07:23:47;;;;;;;6.20;3.13;;;19.00;99.90;;;;;;5010232;28;20538;-75
2022/08/13 07:26:19;;;;;;;3.00;2.70;;;19.10;99.90;;;;;;5010622;28;20451;-74
2022/08/13 07:28:49;;;;;;;3.77;2.70;;;19.20;99.90;;;;;;5011656;28;20824;-74
2022/08/13 07:31:19;;;;;;;3.07;2.60;;;19.30;99.90;;;;;;5011057;28;20501;-74
2022/08/13 07:33:51;;;;;;;4.17;2.80;;;19.40;99.90;;;;;;5011552;28;20509;-74
2022/08/13 07:36:19;;;;;;;4.50;3.50;;;19.60;99.90;;;;;;5012081;28;20443;-74
2022/08/13 07:38:47;;;;;;;2.90;2.70;;;19.70;99.90;;;;;;5011803;28;20443;-74
2022/08/13 07:41:15;;;;;;;3.40;2.60;;;19.80;99.90;;;;;;5013183;28;20470;-74
2022/08/13 07:43:44;;;;;;;4.93;2.93;;;19.80;99.90;;;;;;5014363;28;20951;-74
2022/08/13 07:46:12;;;;;;;3.63;2.90;;;20.00;99.90;;;;;;5014026;28;20467;-74
2022/08/13 07:48:41;;;;;;;3.93;2.77;;;20.10;99.90;;;;;;5014279;28;20505;-74
2022/08/13 07:51:12;;;;;;;3.60;2.40;;;20.20;99.90;;;;;;5013935;28;20498;-74
2022/08/13 07:53:40;;;;;;;4.93;2.70;;;20.40;99.90;;;;;;5013496;28;20482;-74
2022/08/13 07:56:08;;;;;;;4.80;2.80;;;20.50;99.90;;;;;;5012679;28;20482;-74
2022/08/13 07:58:37;;;;;;;3.50;2.60;;;20.60;99.90;;;;;;5012086;28;20529;-74
2022/08/13 08:01:06;;;;;;;3.03;2.40;;;20.70;99.90;;;;;;5011675;28;20474;-74
2022/08/13 08:03:41;;;;;;;3.10;2.67;;;20.80;99.90;;;;;;5011769;28;20832;-74
2022/08/13 08:06:10;;;;;;;6.73;2.73;;;20.80;99.90;;;;;;5011580;28;20434;-74
2022/08/13 08:08:38;;;;;;;4.50;2.70;;;20.90;99.90;;;;;;5011725;28;20532;-74
2022/08/13 08:11:08;;;;;;;3.43;2.70;;;21.10;99.90;;;;;;5011703;28;20495;-74
2022/08/13 08:13:38;;;;;;;3.20;2.80;;;21.20;99.90;;;;;;5011900;28;20462;-74
2022/08/13 08:16:06;;;;;;;2.67;2.40;;;21.30;99.90;;;;;;5011451;28;20484;-74
2022/08/13 08:18:34;;;;;;;2.97;2.77;;;21.40;99.90;;;;;;5011805;28;20553;-74
2022/08/13 08:21:06;;;;;;;2.57;2.37;;;21.50;99.90;;;;;;5011526;28;20541;-74
2022/08/13 08:23:35;;;;;;;3.07;2.63;;;21.60;99.90;;;;;;5011664;28;20454;-74
2022/08/13 08:26:06;;;;;;;4.00;2.60;;;21.70;99.90;;;;;;5011242;28;20490;-74
2022/08/13 08:28:35;;;;;;;3.00;2.60;;;21.90;99.90;;;;;;5013303;28;20461;-74
2022/08/13 08:31:06;;;;;;;2.57;2.37;;;22.00;99.90;;;;;;5015288;28;20852;-74
2022/08/13 08:33:34;;;;;;;3.70;2.50;;;22.10;99.90;;;;;;5015237;28;20470;-74
2022/08/13 08:36:02;;;;;;;4.67;2.37;;;22.20;99.90;;;;;;5014863;28;20838;-74
2022/08/13 08:44:03;;;;;;;4.03;2.53;;;22.40;99.90;;;;;;5014760;28;20441;-75
2022/08/13 08:46:34;;;;;;;2.77;2.43;;;22.50;99.90;;;;;;5014973;28;20454;-75
2022/08/13 08:49:04;;;;;;;2.60;2.40;;;22.70;99.90;;;;;;5014988;28;20451;-75
2022/08/13 08:51:32;;;;;;;3.43;2.50;;;22.90;99.90;;;;;;5014541;28;20580;-76
2022/08/13 08:53:59;;;;;;;2.60;2.40;;;23.10;99.90;;;;;;5014508;28;20465;-75
2022/08/13 08:56:26;;;;;;;5.60;2.60;;;23.20;99.90;;;;;;5014320;28;20462;-75
2022/08/13 08:58:57;;;;;;;5.10;2.80;;;23.30;99.90;;;;;;5014832;28;20465;-75
2022/08/13 09:01:25;;;;;;;2.97;2.57;;;23.40;99.90;;;;;;5014770;28;20470;-75
2022/08/13 09:03:56;;;;;;;4.43;2.33;;;23.50;99.90;;;;;;5014699;28;20462;-75
2022/08/13 09:06:24;;;;;;;2.90;2.70;;;23.60;99.90;;;;;;5014371;28;20449;-75
2022/08/13 09:08:53;;;;;;;3.43;2.10;;;23.70;99.90;;;;;;5014176;28;20938;-75
2022/08/13 09:11:20;;;;;;;5.20;2.30;;;23.90;99.60;;;;;;5014348;28;20502;-75
2022/08/13 09:13:49;;;;;;;2.30;2.10;;;24.00;99.90;;;;;;5014387;28;20497;-75
2022/08/13 09:16:17;;;;;;;3.07;2.07;;;24.20;99.90;;;;;;5014109;28;20513;-75
2022/08/13 09:18:46;;;;;;;3.20;2.50;;;24.30;98.80;;;;;;5013512;28;20465;-75
2022/08/13 09:21:13;;;;;;;4.67;2.30;;;24.60;99.40;;;;;;5013581;28;20485;-75
2022/08/13 09:23:47;;;;;;;6.27;2.23;;;24.80;97.90;;;;;;5014114;28;20957;-75
2022/08/13 09:26:15;;;;;;;3.30;2.40;;;25.10;97.00;;;;;;5014175;28;20447;-75
2022/08/13 09:28:43;;;;;;;4.20;1.93;;;25.50;97.90;;;;;;5014137;28;20463;-75
2022/08/13 09:31:11;;;;;;;2.20;2.00;;;25.70;95.70;;;;;;5013995;28;20494;-75
2022/08/13 09:33:39;;;;;;;5.03;2.00;;;25.90;95.70;;;;;;5014129;28;20455;-75
2022/08/13 09:36:10;;;;;;;2.33;2.03;;;26.00;95.80;;;;;;5013563;28;20463;-75
2022/08/13 09:38:37;;;;;;;7.83;2.10;;;26.20;95.10;;;;;;5013707;28;20859;-75
2022/08/13 09:41:14;;;;;;;2.10;1.90;;;26.20;95.60;;;;;;5013113;28;20496;-75
2022/08/13 09:43:44;;;;;;;2.43;1.90;;;26.40;92.90;;;;;;5013804;28;20458;-75
2022/08/13 09:46:11;;;;;;;2.10;1.90;;;26.80;91.70;;;;;;5013765;28;20459;-75
2022/08/13 09:48:39;;;;;;;2.30;1.80;;;26.90;92.20;;;;;;5013792;28;20455;-75
2022/08/13 09:51:13;;;;;;;3.43;2.20;;;27.00;91.10;;;;;;5013473;28;20482;-75
2022/08/13 09:53:40;;;;;;;5.00;2.20;;;27.20;91.70;;;;;;5014063;28;20535;-75
2022/08/13 09:56:08;;;;;;;3.00;2.20;;;27.50;91.00;;;;;;5013307;28;20516;-75
2022/08/13 09:58:35;;;;;;;5.00;2.20;;;27.60;92.20;;;;;;5013610;28;20461;-75
2022/08/13 10:01:02;;;;;;;5.10;1.90;;;27.60;92.00;;;;;;5013448;28;20478;-75
2022/08/13 10:03:29;;;;;;;2.30;2.07;;;27.70;90.30;;;;;;5014503;28;20455;-75
2022/08/13 10:05:56;;;;;;;4.03;1.90;;;27.90;90.00;;;;;;5013145;28;20954;-75
2022/08/13 10:08:25;;;;;;;3.87;2.10;;;28.10;89.30;;;;;;5013663;28;20454;-75
2022/08/13 10:10:51;;;;;;;4.27;1.90;;;28.10;90.20;;;;;;5013495;28;20478;-75
2022/08/13 10:13:18;;;;;;;5.80;2.20;;;28.30;89.40;;;;;;5012821;28;21027;-75
2022/08/13 10:15:45;;;;;;;2.47;1.77;;;28.60;87.20;;;;;;5013136;28;20458;-75
2022/08/13 10:18:12;;;;;;;5.43;1.90;;;28.40;86.70;;;;;;5013147;28;20546;-75
2022/08/13 10:20:40;;;;;;;6.30;2.20;;;28.50;86.50;;;;;;5012929;28;20865;-75
2022/08/13 10:23:10;;;;;;;1.90;1.70;;;28.60;86.80;;;;;;5013318;28;20446;-75
2022/08/13 10:25:38;;;;;;;3.40;1.90;;;28.60;86.60;;;;;;5013349;28;20457;-75
2022/08/13 10:28:15;;;;;;;3.80;2.20;;;28.90;87.30;;;;;;5013209;28;20545;-75
2022/08/13 10:30:42;;;;;;;3.40;2.20;;;29.00;85.80;;;;;;5013266;28;20474;-75
2022/08/13 10:33:09;;;;;;;2.13;1.93;;;28.90;83.00;;;;;;5012807;28;21017;-75
2022/08/13 10:35:37;;;;;;;2.07;1.70;;;29.00;84.40;;;;;;5012921;28;20950;-75
2022/08/13 10:38:05;;;;;;;3.80;1.57;;;29.30;84.20;;;;;;5012876;28;20454;-75
2022/08/13 10:40:32;;;;;;;1.90;1.60;;;29.40;81.90;;;;;;5012337;28;20823;-75
2022/08/13 10:43:00;;;;;;;3.93;2.20;;;29.50;79.10;;;;;;5012938;28;20447;-75
2022/08/13 10:45:28;;;;;;;4.93;2.10;;;29.60;81.60;;;;;;5012288;28;20555;-75
2022/08/13 10:47:55;;;;;;;3.10;1.83;;;29.60;84.00;;;;;;5012594;28;20470;-75
2022/08/13 10:50:28;;;;;;;3.00;2.00;;;29.80;79.80;;;;;;5012209;28;20485;-75
2022/08/13 10:52:56;;;;;;;2.50;1.90;;;30.00;79.30;;;;;;5012109;28;20855;-75
2022/08/13 10:55:24;;;;;;;4.30;1.80;;;30.10;80.30;;;;;;5012590;28;20929;-75
2022/08/13 10:57:51;;;;;;;1.97;1.80;;;30.30;79.70;;;;;;5013037;28;20458;-75
2022/08/13 11:00:20;;;;;;;5.07;1.67;;;30.50;80.10;;;;;;5012653;28;20458;-75
2022/08/13 11:02:49;;;;;;;1.93;1.70;;;30.50;76.70;;;;;;5012418;28;20505;-75
2022/08/13 11:05:16;;;;;;;2.97;1.53;;;30.60;75.90;;;;;;5012058;28;20462;-75
2022/08/13 11:07:46;;;;;;;2.20;2.00;;;31.20;75.30;;;;;;5012224;28;20978;-75
2022/08/13 11:10:14;;;;;;;2.03;1.40;;;31.30;74.60;;;;;;5012140;28;20483;-75
2022/08/13 11:12:50;;;;;;;1.87;1.67;;;31.40;73.90;;;;;;5012466;28;20495;-75
2022/08/13 11:15:20;;;;;;;2.10;1.90;;;31.30;76.50;;;;;;5012017;28;20879;-75
2022/08/13 11:17:48;;;;;;;3.97;2.30;;;31.40;76.40;;;;;;5012139;28;20447;-75
2022/08/13 11:20:18;;;;;;;1.70;1.57;;;31.40;75.30;;;;;;5012140;28;20516;-75
2022/08/13 11:22:46;;;;;;;2.10;1.90;;;31.40;73.30;;;;;;5012504;28;20520;-75
2022/08/13 11:25:13;;;;;;;2.33;1.73;;;31.60;74.30;;;;;;5012161;28;20455;-75
2022/08/13 11:27:40;;;;;;;2.00;1.50;;;31.60;72.90;;;;;;5012250;28;20455;-75
2022/08/13 11:30:08;;;;;;;2.93;1.80;;;31.70;73.50;;;;;;5012219;28;20546;-75
2022/08/13 11:32:36;;;;;;;2.90;1.93;;;31.90;74.00;;;;;;5011867;28;20501;-75
2022/08/13 11:35:03;;;;;;;2.47;1.60;;;32.00;74.80;;;;;;5011982;28;20476;-75
2022/08/13 11:37:30;;;;;;;4.90;1.37;;;32.00;72.50;;;;;;5012160;28;20939;-75
2022/08/13 11:39:57;;;;;;;1.87;1.67;;;32.00;71.90;;;;;;5012264;28;20455;-75
2022/08/13 11:42:24;;;;;;;1.90;1.70;;;32.30;70.80;;;;;;5011660;28;20479;-75
2022/08/13 11:44:51;;;;;;;2.47;1.53;;;32.30;71.40;;;;;;5011902;28;20454;-75
2022/08/13 11:47:18;;;;;;;2.77;1.80;;;32.40;71.20;;;;;;5011996;28;20459;-75
2022/08/13 11:49:46;;;;;;;2.27;1.53;;;32.90;69.50;;;;;;5012187;28;20561;-75
2022/08/13 11:52:13;;;;;;;4.13;1.87;;;32.90;69.40;;;;;;5011741;28;20494;-75
2022/08/13 11:54:39;;;;;;;2.97;1.70;;;32.90;71.40;;;;;;5011706;28;20461;-75
2022/08/13 11:57:07;;;;;;;1.60;1.50;;;32.80;68.90;;;;;;5011960;28;20455;-75
2022/08/13 11:59:35;;;;;;;1.90;1.63;;;32.70;68.20;;;;;;5011878;28;20451;-75
2022/08/13 12:02:02;;;;;;;4.63;1.70;;;32.70;68.10;;;;;;5012025;28;20478;-75
2022/08/13 12:04:29;;;;;;;5.03;1.80;;;32.40;66.70;;;;;;5014794;28;20454;-75
2022/08/13 12:06:57;;;;;;;1.93;1.67;;;32.40;68.10;;;;;;5015730;28;20455;-75
2022/08/13 12:09:24;;;;;;;2.43;1.50;;;32.40;67.00;;;;;;5016167;28;20455;-75
2022/08/13 12:11:51;;;;;;;1.90;1.70;;;32.50;67.60;;;;;;5015561;28;21017;-75
2022/08/13 12:14:17;;;;;;;3.50;1.60;;;32.70;68.30;;;;;;5015235;28;20465;-75
2022/08/13 12:16:44;;;;;;;7.83;1.80;;;33.10;66.20;;;;;;5015334;28;20833;-75
2022/08/13 12:19:11;;;;;;;4.40;1.70;;;33.40;65.80;;;;;;5015645;28;20453;-75
2022/08/13 12:21:38;;;;;;;2.50;1.40;;;33.10;66.20;;;;;;5015330;28;20485;-75
2022/08/13 12:24:06;;;;;;;1.50;1.40;;;33.00;65.20;;;;;;5015669;28;20457;-75
2022/08/13 12:26:33;;;;;;;1.50;1.40;;;33.10;64.60;;;;;;5015120;28;20455;-75
2022/08/13 12:29:00;;;;;;;2.80;2.03;;;33.10;64.00;;;;;;5015491;28;20465;-75
2022/08/13 12:31:27;;;;;;;3.63;1.60;;;33.10;63.50;;;;;;5015154;28;20471;-75
2022/08/13 12:33:54;;;;;;;2.70;1.50;;;33.10;62.90;;;;;;5015528;28;20494;-75
2022/08/13 12:36:22;;;;;;;1.63;1.50;;;32.90;64.10;;;;;;5015238;28;20458;-75
2022/08/13 12:38:49;;;;;;;2.23;1.40;;;33.00;63.50;;;;;;5015156;28;20454;-75
2022/08/13 12:41:17;;;;;;;2.97;1.47;;;33.10;65.50;;;;;;5014594;28;20479;-75
2022/08/13 12:43:44;;;;;;;4.60;1.50;;;33.00;66.80;;;;;;5015107;28;20454;-75
2022/08/13 12:46:12;;;;;;;5.03;1.73;;;33.10;63.70;;;;;;5014841;28;20458;-75
2022/08/13 12:48:39;;;;;;;2.63;1.47;;;33.60;62.40;;;;;;5014851;28;20467;-75
2022/08/13 12:51:06;;;;;;;1.53;1.20;;;33.80;64.20;;;;;;5015121;28;20482;-76
2022/08/13 12:53:32;;;;;;;3.43;2.17;;;33.80;63.20;;;;;;5014692;28;20494;-75
2022/08/13 12:55:59;;;;;;;2.40;1.67;;;34.60;59.50;;;;;;5014232;28;20469;-75
2022/08/13 12:58:28;;;;;;;4.03;1.87;;;34.70;61.70;;;;;;5015024;28;20457;-75
2022/08/13 13:00:57;;;;;;;4.17;1.70;;;34.30;61.70;;;;;;5014866;28;20479;-75
2022/08/13 13:03:26;;;;;;;1.80;1.60;;;34.10;61.70;;;;;;5014661;28;20969;-74
2022/08/13 13:05:53;;;;;;;1.57;1.47;;;33.90;62.00;;;;;;5014601;28;20463;-74
2022/08/13 13:08:23;;;;;;;5.00;1.30;;;33.50;61.50;;;;;;5014374;28;20454;-74
2022/08/13 13:10:51;;;;;;;4.20;1.80;;;33.50;62.10;;;;;;5014551;28;20478;-74
2022/08/13 13:13:19;;;;;;;2.60;1.50;;;33.50;60.50;;;;;;5014233;28;20547;-74
2022/08/13 13:15:47;;;;;;;3.77;1.77;;;33.40;61.30;;;;;;5014048;28;21023;-75
2022/08/13 13:18:17;;;;;;;1.97;1.60;;;33.50;60.20;;;;;;5014332;28;20455;-75
2022/08/13 13:20:45;;;;;;;5.73;2.40;;;33.50;62.80;;;;;;5013994;28;20987;-75
2022/08/13 13:23:13;;;;;;;2.07;1.83;;;33.50;63.10;;;;;;5014571;28;20569;-75
2022/08/13 13:25:43;;;;;;;2.87;1.90;;;33.40;63.20;;;;;;5014104;28;20455;-75
2022/08/13 13:28:12;;;;;;;4.83;1.77;;;33.20;62.90;;;;;;5014367;28;20950;-75
2022/08/13 13:30:39;;;;;;;2.67;1.50;;;33.10;64.50;;;;;;5014033;28;20476;-75
2022/08/13 13:33:09;;;;;;;3.67;1.63;;;33.00;63.40;;;;;;5013866;28;20487;-75
2022/08/13 13:35:37;;;;;;;2.07;1.60;;;33.00;63.00;;;;;;5013423;28;20478;-75
2022/08/13 13:38:04;;;;;;;2.33;1.50;;;33.20;59.70;;;;;;5014237;28;20458;-75
2022/08/13 13:40:32;;;;;;;2.73;1.80;;;33.30;61.20;;;;;;5014301;28;20485;-75
2022/08/13 13:42:59;;;;;;;2.17;1.63;;;33.10;61.60;;;;;;5014004;28;20868;-75
2022/08/13 13:45:27;;;;;;;1.40;1.30;;;32.90;61.40;;;;;;5013811;28;20455;-75
2022/08/13 13:47:54;;;;;;;2.67;1.40;;;32.90;63.50;;;;;;5013853;28;20927;-75
2022/08/13 13:50:23;;;;;;;2.53;1.50;;;32.90;61.90;;;;;;5013778;28;20467;-75
2022/08/13 13:52:50;;;;;;;3.43;1.60;;;32.80;62.40;;;;;;5013780;28;20495;-75
2022/08/13 13:55:18;;;;;;;3.20;1.70;;;32.80;62.60;;;;;;5013608;28;20454;-75
2022/08/13 13:57:46;;;;;;;3.10;1.50;;;32.70;63.70;;;;;;5013680;28;20951;-75
2022/08/13 14:00:14;;;;;;;1.97;1.33;;;32.80;62.30;;;;;;5013787;28;20466;-75
2022/08/13 14:02:48;;;;;;;3.00;1.80;;;32.90;60.90;;;;;;5013272;28;20450;-75
2022/08/13 14:05:15;;;;;;;3.17;1.57;;;32.90;60.80;;;;;;5013229;28;20825;-75
2022/08/13 14:07:51;;;;;;;3.63;1.60;;;32.80;61.30;;;;;;5013589;28;20451;-75
2022/08/13 14:10:19;;;;;;;1.97;1.67;;;32.70;61.10;;;;;;5013805;28;20439;-75
2022/08/13 14:12:47;;;;;;;2.00;1.70;;;32.60;60.40;;;;;;5013539;28;20509;-75
2022/08/13 14:15:15;;;;;;;3.00;1.53;;;32.60;63.40;;;;;;5013221;28;20463;-75
2022/08/13 14:17:42;;;;;;;6.67;2.20;;;32.60;62.80;;;;;;5013467;28;20461;-75
2022/08/13 14:20:11;;;;;;;1.93;1.77;;;32.60;63.10;;;;;;5013401;28;20458;-75
2022/08/13 14:22:38;;;;;;;2.30;1.70;;;32.60;63.20;;;;;;5013410;28;20650;-75
2022/08/13 14:25:10;;;;;;;1.67;1.57;;;32.70;64.70;;;;;;5013104;28;20822;-75
2022/08/13 14:27:38;;;;;;;1.77;1.67;;;32.70;62.20;;;;;;5012962;28;20451;-75
2022/08/13 14:30:06;;;;;;;5.20;1.83;;;32.70;62.50;;;;;;5013154;28;20469;-75
2022/08/13 14:32:32;;;;;;;2.00;1.80;;;32.70;64.60;;;;;;5013097;28;20450;-75
2022/08/13 14:35:02;;;;;;;4.37;2.20;;;32.70;65.00;;;;;;5012714;28;20459;-75
2022/08/13 14:37:28;;;;;;;4.23;1.97;;;32.80;65.60;;;;;;5012991;28;20455;-75
2022/08/13 14:39:55;;;;;;;2.03;1.80;;;32.70;63.70;;;;;;5013062;28;20450;-75
2022/08/13 14:42:26;;;;;;;3.13;1.90;;;32.70;64.90;;;;;;5012924;28;20629;-75
2022/08/13 14:45:39;;;;;;;4.20;2.20;;;32.70;63.60;;;;;;5012728;28;20516;-75
2022/08/13 14:47:50;;;;;;;2.90;2.50;;;32.50;63.10;;;;;;5012489;28;20453;-75
2022/08/13 14:50:17;;;;;;;2.73;1.70;;;32.30;63.20;;;;;;5012822;28;20443;-75
2022/08/13 14:52:45;;;;;;;2.47;1.80;;;32.40;61.50;;;;;;5012606;28;20468;-75
2022/08/13 14:55:14;;;;;;;3.80;1.57;;;32.40;60.80;;;;;;5012228;28;20458;-75
2022/08/13 14:57:42;;;;;;;2.10;1.90;;;32.40;62.10;;;;;;5012820;28;20459;-75
2022/08/13 15:00:12;;;;;;;5.80;1.70;;;32.50;63.00;;;;;;5012480;28;20980;-75
2022/08/13 15:02:40;;;;;;;4.90;2.00;;;32.50;61.60;;;;;;5012694;28;20461;-75
2022/08/13 15:05:09;;;;;;;2.70;1.47;;;32.50;62.60;;;;;;5012550;28;20900;-75
2022/08/13 15:07:36;;;;;;;1.67;1.50;;;32.40;60.50;;;;;;5012509;28;20450;-75
2022/08/13 15:10:05;;;;;;;2.10;1.93;;;32.40;61.70;;;;;;5012360;28;20473;-75
2022/08/13 15:12:32;;;;;;;2.50;1.60;;;32.40;64.50;;;;;;5012272;28;20831;-75
2022/08/13 15:15:01;;;;;;;2.30;1.60;;;32.40;62.30;;;;;;5011928;28;21002;-75
2022/08/13 15:17:28;;;;;;;7.20;2.00;;;32.50;62.80;;;;;;5012060;28;20458;-75
2022/08/13 15:19:56;;;;;;;3.40;1.70;;;32.50;66.10;;;;;;5012500;28;20453;-75
2022/08/13 15:22:23;;;;;;;2.70;1.63;;;32.50;63.20;;;;;;5012425;28;20545;-75
2022/08/13 15:24:50;;;;;;;2.47;1.90;;;32.40;62.40;;;;;;5012323;28;20453;-75
2022/08/13 15:27:32;;;;;;;2.43;2.10;;;32.20;64.00;;;;;;5012441;28;20788;-75
2022/08/13 15:30:02;;;;;;;4.87;1.90;;;32.10;64.20;;;;;;5011990;28;20462;-75
2022/08/13 15:32:29;;;;;;;2.47;1.90;;;32.10;64.40;;;;;;5012292;28;20465;-75
2022/08/13 15:34:57;;;;;;;1.90;1.70;;;32.20;63.50;;;;;;5011903;28;21028;-75
2022/08/13 15:37:25;;;;;;;2.67;1.70;;;32.20;64.70;;;;;;5011141;28;20824;-75
2022/08/13 15:39:52;;;;;;;2.97;2.10;;;32.20;65.60;;;;;;5012211;28;20556;-75
2022/08/13 15:42:21;;;;;;;2.23;2.00;;;32.20;64.10;;;;;;5012111;28;20479;-75
2022/08/13 15:44:48;;;;;;;2.40;2.17;;;32.30;66.60;;;;;;5011550;28;20876;-75
2022/08/13 15:47:18;;;;;;;2.43;2.10;;;32.30;64.70;;;;;;5012064;28;20459;-75
2022/08/13 15:49:47;;;;;;;3.60;1.83;;;32.30;63.80;;;;;;5012242;28;20454;-75
2022/08/13 15:52:14;;;;;;;2.53;1.90;;;32.40;65.80;;;;;;5011769;28;20493;-75
2022/08/13 15:54:41;;;;;;;4.40;2.13;;;32.50;65.30;;;;;;5011610;28;20596;-75
2022/08/13 15:57:08;;;;;;;4.77;2.20;;;32.60;63.60;;;;;;5011470;28;20465;-75
2022/08/13 15:59:37;;;;;;;3.90;2.17;;;32.60;66.60;;;;;;5011803;28;20459;-75
2022/08/13 16:02:04;;;;;;;4.40;2.37;;;32.60;62.80;;;;;;5011648;28;20570;-75
2022/08/13 16:04:34;;;;;;;2.23;2.00;;;32.70;64.90;;;;;;5011706;28;20481;-75
2022/08/13 16:07:03;;;;;;;5.63;2.27;;;32.70;63.90;;;;;;5012024;28;20462;-75
2022/08/13 16:09:30;;;;;;;3.80;2.33;;;32.70;62.50;;;;;;5011537;28;20828;-75
2022/08/13 16:11:58;;;;;;;3.47;1.67;;;32.70;63.70;;;;;;5011821;28;20493;-75
2022/08/13 16:14:25;;;;;;;2.67;1.70;;;32.80;62.60;;;;;;5011744;28;20487;-75
2022/08/13 16:16:54;;;;;;;2.40;1.87;;;32.80;63.60;;;;;;5011966;28;20454;-75
2022/08/13 16:19:23;;;;;;;2.07;1.53;;;32.80;63.40;;;;;;5011923;28;21067;-75
2022/08/13 16:21:51;;;;;;;2.60;2.10;;;32.80;63.30;;;;;;5011714;28;20477;-75
2022/08/13 16:24:18;;;;;;;2.10;1.90;;;32.70;61.30;;;;;;5011143;28;20960;-75
2022/08/13 16:26:45;;;;;;;3.40;1.80;;;32.70;62.20;;;;;;5011553;28;20959;-75
2022/08/13 16:29:12;;;;;;;1.80;1.70;;;32.60;62.40;;;;;;5011836;28;20454;-73
2022/08/13 16:31:40;;;;;;;3.10;2.33;;;32.50;62.30;;;;;;5011763;28;20471;-73
2022/08/13 16:34:08;;;;;;;4.10;3.50;;;32.50;63.10;;;;;;5011128;28;20928;-73
2022/08/13 16:36:35;;;;;;;4.47;4.07;;;32.50;62.60;;;;;;5011633;28;20458;-73
2022/08/13 16:39:05;;;;;;;3.03;2.40;;;32.50;60.90;;;;;;5011692;28;20565;-74
2022/08/13 16:41:33;;;;;;;2.40;2.20;;;32.40;61.80;;;;;;5012105;28;20474;-73
2022/08/13 16:44:02;;;;;;;2.63;2.10;;;32.40;63.50;;;;;;5011519;28;20451;-74
2022/08/13 16:46:32;;;;;;;3.30;1.90;;;32.40;62.60;;;;;;5011508;28;20963;-75
2022/08/13 16:49:02;;;;;;;2.40;2.20;;;32.30;63.00;;;;;;5012435;28;20450;-75
2022/08/13 16:51:32;;;;;;;5.10;1.80;;;32.30;61.90;;;;;;5014597;28;20577;-75
2022/08/13 16:53:59;;;;;;;2.47;2.00;;;32.20;61.80;;;;;;5014826;28;20491;-75
2022/08/13 16:56:30;;;;;;;5.17;2.07;;;32.20;63.00;;;;;;5015046;28;20520;-74
2022/08/13 16:58:57;;;;;;;3.73;2.03;;;32.10;62.00;;;;;;5015068;28;20458;-74
2022/08/13 17:01:26;;;;;;;2.57;2.07;;;32.00;63.30;;;;;;5014790;28;20561;-74
2022/08/13 17:09:22;;;;;;;4.70;2.13;;;31.70;63.40;;;;;;5014851;28;20473;-73